Arbyrd, MO

11:49 AM CDT on July 02, 2015 (GMT -0500)
KC0UFP WX | | Change Station
CLOSE
Current Station
Personal Weather Station
Location: Kennett, MO
Elevation: 262 ft
Nearby Weather Stations

Elev 262 ft 36.21 °N, 90.07 °W | Updated 49 seconds ago

Partly Cloudy
Partly Cloudy
81.7 °F
Feels Like 89 °F
N
5.8
Wind Variable Wind from SSE

Today
High -- | Low -- °F
--% Chance of Precip.
Yesterday
High -- | Low -- °F
Precip. -- in
5:47 AM 8:21 PM
Full, 100% visible
Pressure 29.88 in
Visibility 10.0 miles
Clouds Few 1900 ft
Heat Index 89 °F
Dew Point 76 °F
Humidity 83%
Rainfall 0.14 in
Snow Depth Not available.
UV 9 out of 12
Pollen .30 out of 12
Air Quality Not available.
Flu Activity Not available.
METAR KHKA 021553Z AUTO 23011G21KT 10SM FEW019 27/23 A2989 RMK AO2 PK WND 22027/1525 SLP117 T02720233

More Conditions Fewer Conditions

Pressure 29.88 in
Visibility 10.0 miles
Clouds Few 1900 ft
Heat Index 89 °F
Dew Point 76 °F
Humidity 83%
Rainfall 0.14 in
Snow Depth Not available.
UV 9 out of 12
Pollen .30 out of 12
Air Quality Not available.
Flu Activity Not available.
METAR KHKA 021553Z AUTO 23011G21KT 10SM FEW019 27/23 A2989 RMK AO2 PK WND 22027/1525 SLP117 T02720233

More Conditions Fewer Conditions

10-Day Weather Forecast

×

Almanac

Astronomy

Jul. 02, 2015 Rise Set
Actual Time
Civil Twilight
Nautical Twilight
Astronomical Twilight
Moon
Length of Visible Light
Length of Day
Tomorrow will be .
, % of the Moon is Illuminated

Today's Extremes

State Highs State Lows

Community

WunderPhotos

Upload Photos

1,834,498 photos uploaded!

WunderBlogs® & News

Nearby

Air Quality

  Air Quality AQ Index Pollutant
Not available.

Snow Depth

Station Depth Elevation

Earthquake Activity

City Distance Mag. Time & Date
Minimum magnitude displayed is 2.5.

Coastal Water Temperatures

Place Temperature

Stations

Nearby Weather Stations

Station Location Temp. Windchill Dew Point Humidity Wind Precip. Elev Updated Type